Airfield :
LOGIN :

Register | Disclaimer

   EN    FR    IT 

 










Legend :    VFR   Marginal VFR   IFR   Intensive IFR   Very Intensive IFR
Visi :
Ceiling :
>= 8 km
>= 3000ft
5 to 8 km
1000 to 3000 ft
1500m to 5 km
500 to 1000 ft
800 to 1500m
200 to 500 ft
< 800m
< 200 ft
Symbols :   Thunderstorms  Fog  Heavy snow  Heavy precipitations  Wind > 20 kt
SIGMETs :     Misc.  Thunderstorms  Icing  Turbulence  Mountain Waves  Volcanic Ashes






- Airport Elevation : 1066 ft


EGOM - RAF Spadeadam

CURRENT METAR :
  • 041220Z AUTO 26021KT 9999 RERA BKN011/// BKN039/// 13/10 Q1016

EXPIRED METARs :
  • 041150Z 26021G31KT 9999 -DZ OVC014 12/10 Q1016 RMK GRN
  • 041120Z AUTO 25018KT 9999 RERA BKN007/// BKN038/// 13/11 Q1016
  • 041050Z 27016KT 9999 -RA BKN012 ///025 11/09 Q1016 RMK GRN
  • 041020Z AUTO 26017KT 9999 UP OVC007/// 12/10 Q1016
  • 040950Z 25016KT 9999 SCT010 SCT040 11/10 Q1016 RERA RMK GRN
  • 040920Z AUTO 25017KT 3600 -RA OVC012/// 11/09 Q1016

Expired Forecast.



MET'MAP, your aeronautical weather chart ! - Copyright ORBIFLY December 2007 - Disclaimer

ORBIFLY MET'MAP TEAM :

Programming & Development : Alexandra Zaïnal
Original concept : Baudouin d'Aumeries
Technical & hardware support : Manuel Goepfert
Assistance : Marc-Olivier Méhu




SOURCES & CREDITS :

   NOAA